Time;durP1;ratioP1;P1;durP2;ratioP2;P2;SDS_P1;SDS_P2;PMS_P1;PMS_P2;Temp;Humidity;BMP_temperature;BMP_pressure;BME280_temperature;BME280_humidity;BME280_pressure;Samples;Min_cycle;Max_cycle;Signal;HPM_P1;HPM_P2
2023/03/22 00:00:56;;;;;;;14.60;8.40;;;21.10;58.30;;;;;;5009368;28;20032;-77
2023/03/22 00:03:24;;;;;;;15.50;8.77;;;21.00;58.30;;;;;;5046946;28;20045;-77
2023/03/22 00:05:57;;;;;;;14.13;8.98;;;20.90;58.40;;;;;;5051398;28;20128;-77
2023/03/22 00:08:23;;;;;;;12.15;8.40;;;20.90;58.40;;;;;;5051265;28;20025;-76
2023/03/22 00:10:49;;;;;;;14.18;8.65;;;21.00;58.50;;;;;;5051611;28;20116;-77
2023/03/22 00:13:15;;;;;;;14.55;9.05;;;21.00;58.50;;;;;;5051168;28;20052;-77
2023/03/22 00:15:43;;;;;;;12.00;8.75;;;21.00;58.70;;;;;;5051130;28;20431;-77
2023/03/22 00:18:11;;;;;;;15.15;8.73;;;20.90;58.60;;;;;;5051109;28;20037;-77
2023/03/22 00:20:39;;;;;;;16.55;8.90;;;21.00;58.50;;;;;;5051210;28;20037;-77
2023/03/22 00:23:05;;;;;;;15.75;8.27;;;21.00;58.60;;;;;;5050928;28;20040;-77
2023/03/22 00:25:31;;;;;;;11.60;7.95;;;21.10;58.60;;;;;;5051273;28;20033;-77
2023/03/22 00:27:57;;;;;;;12.07;8.70;;;21.00;58.60;;;;;;5051215;28;20110;-76
2023/03/22 00:30:23;;;;;;;15.35;8.55;;;21.00;58.60;;;;;;5051076;28;20468;-77
2023/03/22 00:32:51;;;;;;;13.75;9.02;;;21.00;58.50;;;;;;5051130;28;20033;-77
2023/03/22 00:35:17;;;;;;;15.57;9.38;;;20.90;58.50;;;;;;5032757;28;20043;-76
2023/03/22 00:37:43;;;;;;;14.25;8.85;;;21.00;58.50;;;;;;5051137;28;20447;-77
2023/03/22 00:40:13;;;;;;;11.90;8.32;;;21.00;58.50;;;;;;5050823;28;20123;-77
2023/03/22 00:42:40;;;;;;;15.18;8.50;;;21.00;58.50;;;;;;5016856;28;20044;-77
2023/03/22 00:45:09;;;;;;;14.80;8.63;;;21.00;58.40;;;;;;5050654;28;20033;-76
2023/03/22 00:47:36;;;;;;;11.80;8.63;;;21.00;58.40;;;;;;5033205;28;20477;-77
2023/03/22 00:50:04;;;;;;;12.77;8.52;;;21.00;58.40;;;;;;5032968;28;20064;-77
2023/03/22 00:52:31;;;;;;;12.93;8.15;;;21.00;58.40;;;;;;5033082;28;20112;-77
2023/03/22 00:54:58;;;;;;;12.43;8.27;;;20.90;58.30;;;;;;5032996;28;20037;-76
2023/03/22 00:57:24;;;;;;;14.88;7.60;;;20.90;58.40;;;;;;5032811;28;20446;-77
2023/03/22 00:59:52;;;;;;;16.77;8.68;;;20.90;58.40;;;;;;5033163;28;20037;-77
2023/03/22 01:02:19;;;;;;;12.05;8.27;;;20.90;58.50;;;;;;5032763;28;20098;-76
2023/03/22 01:04:45;;;;;;;13.88;7.68;;;20.80;58.40;;;;;;5032760;28;20032;-78
2023/03/22 01:07:16;;;;;;;12.38;8.90;;;20.80;58.50;;;;;;5032813;28;20465;-77
2023/03/22 01:09:52;;;;;;;13.50;8.25;;;20.90;58.70;;;;;;5035585;28;20518;-77
2023/03/22 01:12:19;;;;;;;13.50;9.23;;;20.70;58.60;;;;;;5054718;28;20408;-77
2023/03/22 01:14:45;;;;;;;11.77;8.82;;;20.80;58.70;;;;;;5054556;28;20044;-77
2023/03/22 01:17:12;;;;;;;15.52;8.32;;;20.70;58.80;;;;;;5036690;28;20037;-76
2023/03/22 01:19:38;;;;;;;14.63;8.10;;;20.70;58.90;;;;;;5054636;28;20049;-77
2023/03/22 01:22:05;;;;;;;12.52;8.98;;;20.80;59.00;;;;;;5002813;28;20159;-76
2023/03/22 01:24:32;;;;;;;10.80;7.85;;;20.60;59.00;;;;;;5036522;28;20472;-76
2023/03/22 01:26:58;;;;;;;15.70;8.65;;;20.70;59.10;;;;;;5054369;28;20029;-77
2023/03/22 01:29:25;;;;;;;14.45;9.20;;;20.70;59.00;;;;;;5054346;28;20036;-76
2023/03/22 01:31:51;;;;;;;12.23;8.80;;;20.80;58.90;;;;;;5036653;28;20037;-76
2023/03/22 01:34:18;;;;;;;15.02;9.15;;;20.70;58.90;;;;;;5036391;28;20041;-76
2023/03/22 01:36:44;;;;;;;13.00;8.40;;;20.70;58.90;;;;;;5054154;28;20075;-77
2023/03/22 01:39:10;;;;;;;15.18;8.13;;;20.70;58.90;;;;;;5036283;28;20041;-77
2023/03/22 01:41:37;;;;;;;13.18;9.27;;;20.70;58.80;;;;;;5036522;28;20091;-77
2023/03/22 01:44:12;;;;;;;;;;;20.80;58.80;;;;;;5036731;28;20059;-77
2023/03/22 01:46:39;;;;;;;;;;;20.80;58.70;;;;;;5036538;28;20399;-76
2023/03/22 01:49:07;;;;;;;;;;;20.80;58.70;;;;;;5036929;28;19909;-76
2023/03/22 01:51:33;;;;;;;;;;;20.80;58.60;;;;;;5036893;28;19913;-77
2023/03/22 01:54:20;;;;;;;;;;;20.80;58.60;;;;;;5036434;28;20292;-77
2023/03/22 01:56:47;;;;;;;;;;;20.70;58.50;;;;;;5036254;28;19919;-76
2023/03/22 01:59:21;;;;;;;;;;;20.80;58.50;;;;;;5054046;28;20034;-77
2023/03/22 02:02:17;;;;;;;;;;;20.80;58.60;;;;;;5036275;28;19962;-77
2023/03/22 02:04:49;;;;;;;;;;;20.70;58.60;;;;;;5036206;28;19909;-76
2023/03/22 02:07:24;;;;;;;;;;;20.70;58.60;;;;;;5036009;28;19989;-77
2023/03/22 02:09:51;;;;;;;;;;;20.70;58.60;;;;;;5036079;28;19931;-76
2023/03/22 02:12:33;;;;;;;;;;;20.70;58.70;;;;;;5056227;28;19935;-76
2023/03/22 02:15:06;;;;;;;;;;;20.70;58.80;;;;;;5072619;28;19941;-76
2023/03/22 02:18:05;;;;;;;;;;;20.60;58.80;;;;;;5031314;28;20300;-77
2023/03/22 02:20:51;;;;;;;;;;;20.50;58.90;;;;;;5013958;28;19909;-77
2023/03/22 02:23:53;;;;;;;;;;;20.60;59.00;;;;;;5014757;28;19909;-77
2023/03/22 02:26:58;;;;;;;;;;;20.50;59.10;;;;;;4972395;28;19914;-77
2023/03/22 02:29:33;;;;;;;;;;;20.60;59.20;;;;;;4934015;29;19950;-77
2023/03/22 02:32:05;;;;;;;;;;;20.60;59.20;;;;;;4902679;29;19910;-77
2023/03/22 02:34:49;;;;;;;;;;;20.50;59.20;;;;;;4902396;29;19917;-77
2023/03/22 02:37:18;;;;;;;;;;;20.60;59.10;;;;;;4933878;29;20084;-77
2023/03/22 02:39:48;;;;;;;;;;;20.60;59.10;;;;;;4933814;29;19923;-76
2023/03/22 02:42:17;;;;;;;;;;;20.60;59.00;;;;;;4933817;29;19910;-76
2023/03/22 02:44:43;;;;;;;;;;;20.60;58.70;;;;;;4917787;29;20430;-77
2023/03/22 02:47:21;;;;;;;;;;;20.70;58.80;;;;;;4933485;29;20050;-77
2023/03/22 02:50:16;;;;;;;;;;;20.70;58.70;;;;;;4917851;29;20386;-77
2023/03/22 02:52:45;;;;;;;;;;;20.70;58.70;;;;;;4914764;29;19918;-77
2023/03/22 02:55:16;;;;;;;;;;;20.60;58.60;;;;;;4929834;29;19911;-77
2023/03/22 02:57:42;;;;;;;;;;;20.70;58.80;;;;;;4933400;29;19911;-77
2023/03/22 03:00:11;;;;;;;;;;;20.60;58.60;;;;;;4977448;28;20009;-77
2023/03/22 03:02:42;;;;;;;;;;;20.70;58.70;;;;;;5014558;28;20006;-76
2023/03/22 03:05:09;;;;;;;;;;;20.70;58.80;;;;;;5030622;28;20403;-77
2023/03/22 03:07:36;;;;;;;;;;;20.60;58.60;;;;;;5010569;28;19913;-77
2023/03/22 03:10:03;;;;;;;;;;;20.60;58.70;;;;;;4994256;28;19936;-77
2023/03/22 03:12:29;;;;;;;;;;;20.60;58.70;;;;;;4994335;28;19925;-76
2023/03/22 03:14:56;;;;;;;;;;;20.50;58.80;;;;;;4994286;28;19924;-76
2023/03/22 03:17:22;;;;;;;;;;;20.40;58.70;;;;;;4994224;28;19967;-76
2023/03/22 03:20:08;;;;;;;;;;;20.50;58.90;;;;;;4961748;28;19917;-77
2023/03/22 03:22:40;;;;;;;;;;;20.50;59.00;;;;;;4971488;28;20090;-77
2023/03/22 03:25:06;;;;;;;;;;;20.50;59.10;;;;;;4955449;28;19910;-77
2023/03/22 03:27:38;;;;;;;;;;;20.40;59.10;;;;;;4955613;28;20490;-77
2023/03/22 03:30:07;;;;;;;;;;;20.40;59.10;;;;;;4955311;28;19910;-76
2023/03/22 03:32:36;;;;;;;;;;;20.40;59.10;;;;;;4971222;28;20301;-77
2023/03/22 03:35:09;;;;;;;;;;;20.40;59.20;;;;;;4971369;28;19949;-76
2023/03/22 03:37:38;;;;;;;;;;;20.40;59.30;;;;;;4956848;28;19914;-77
2023/03/22 03:40:27;;;;;;;;;;;20.40;59.30;;;;;;4974594;28;19992;-77
2023/03/22 03:42:55;;;;;;;;;;;20.40;59.30;;;;;;4990543;28;19910;-77
2023/03/22 03:45:23;;;;;;;;;;;20.40;59.10;;;;;;4990419;28;20097;-76
2023/03/22 03:47:55;;;;;;;;;;;20.40;59.20;;;;;;4990498;28;20484;-76
2023/03/22 03:50:22;;;;;;;;;;;20.40;59.20;;;;;;4990406;28;19910;-76
2023/03/22 03:52:50;;;;;;;;;;;20.50;59.20;;;;;;4974655;28;19913;-77
2023/03/22 03:55:16;;;;;;;;;;;20.40;59.00;;;;;;4974235;28;20394;-77
2023/03/22 03:57:41;;;;;;;;;;;20.50;59.10;;;;;;4974087;28;19953;-77
2023/03/22 04:00:08;;;;;;;;;;;20.50;59.00;;;;;;5001008;28;20260;-77
2023/03/22 04:02:40;;;;;;;;;;;20.60;58.90;;;;;;5029718;28;19997;-77
2023/03/22 04:05:11;;;;;;;;;;;20.50;58.80;;;;;;5013265;28;19909;-77
2023/03/22 04:07:38;;;;;;;;;;;20.50;58.70;;;;;;5012900;28;19917;-76
2023/03/22 04:10:04;;;;;;;;;;;20.50;58.70;;;;;;5012980;28;19920;-76
2023/03/22 04:12:32;;;;;;;;;;;20.50;58.80;;;;;;5012726;28;19932;-77
2023/03/22 04:15:16;;;;;;;;;;;20.50;58.80;;;;;;5012870;28;19944;-77
2023/03/22 04:17:45;;;;;;;;;;;20.50;58.90;;;;;;5012653;28;20004;-77
2023/03/22 04:20:12;;;;;;;;;;;20.40;58.90;;;;;;5031777;28;19908;-77
2023/03/22 04:22:39;;;;;;;;;;;20.40;58.90;;;;;;5070558;28;19965;-77
2023/03/22 04:25:10;;;;;;;;;;;20.30;58.90;;;;;;5070356;28;20380;-77
2023/03/22 04:27:41;;;;;;;;;;;20.30;59.10;;;;;;5070367;28;19908;-77
2023/03/22 04:30:11;;;;;;;;;;;20.30;59.10;;;;;;5070392;28;19912;-77
2023/03/22 04:33:05;;;;;;;;;;;20.30;59.10;;;;;;5029079;28;19913;-77
2023/03/22 04:35:55;;;;;;;;;;;20.30;59.20;;;;;;5012868;28;19956;-77
2023/03/22 04:38:24;;;;;;;;;;;20.30;59.00;;;;;;5012860;28;19959;-77
2023/03/22 04:40:51;;;;;;;;;;;20.40;59.10;;;;;;5012438;28;19909;-76
2023/03/22 04:43:40;;;;;;;;;;;20.30;59.10;;;;;;5011867;28;19917;-76
2023/03/22 04:46:11;;;;;;;;;;;20.40;59.10;;;;;;5012490;28;19916;-76
2023/03/22 04:48:45;;;;;;;;;;;20.40;58.90;;;;;;5012546;28;20407;-77
2023/03/22 04:51:11;;;;;;;;;;;20.30;58.90;;;;;;5012613;28;19995;-77
2023/03/22 04:53:43;;;;;;;;;;;20.30;59.10;;;;;;5012531;28;20333;-76
2023/03/22 04:56:11;;;;;;;;;;;20.30;59.20;;;;;;5028301;28;19913;-77
2023/03/22 04:58:41;;;;;;;;;;;20.50;59.10;;;;;;5012470;28;19917;-77
2023/03/22 05:01:08;;;;;;;;;;;20.40;58.80;;;;;;5028768;28;19944;-77
2023/03/22 05:03:37;;;;;;;;;;;20.50;58.70;;;;;;5012526;28;19913;-76
2023/03/22 05:06:05;;;;;;;;;;;20.50;58.50;;;;;;5028690;28;20662;-76
2023/03/22 05:08:40;;;;;;;;;;;20.50;58.60;;;;;;5012570;28;20314;-77
2023/03/22 05:11:07;;;;;;;;;;;20.40;58.60;;;;;;5064794;28;19912;-76
2023/03/22 05:13:33;;;;;;;;;;;20.50;58.70;;;;;;5033515;28;19917;-77
2023/03/22 05:16:00;;;;;;;;;;;20.50;58.70;;;;;;5051224;28;20003;-77
2023/03/22 05:18:44;;;;;;;;;;;20.10;58.20;;;;;;5016433;28;20444;-77
2023/03/22 05:21:14;;;;;;;;;;;20.40;58.10;;;;;;5033328;28;19963;-77
2023/03/22 05:23:41;;;;;;;;;;;20.50;58.10;;;;;;5033397;28;19908;-77
2023/03/22 05:26:09;;;;;;;;;;;20.60;58.20;;;;;;5033202;28;19908;-76
2023/03/22 05:28:36;;;;;;;;;;;20.40;58.30;;;;;;5032980;28;19909;-76
2023/03/22 05:31:10;;;;;;;;;;;20.50;58.50;;;;;;5033044;28;19913;-77
2023/03/22 05:33:53;;;;;;;;;;;20.50;58.70;;;;;;5033371;28;19916;-76
2023/03/22 05:36:21;;;;;;;;;;;20.40;58.50;;;;;;5033046;28;19916;-75
2023/03/22 05:39:06;;;;;;;;;;;20.40;58.60;;;;;;5033064;28;19939;-76
2023/03/22 05:41:32;;;;;;;;;;;20.40;58.70;;;;;;5032821;28;19959;-76
2023/03/22 05:43:59;;;;;;;;;;;20.30;58.80;;;;;;5033841;28;19909;-76
2023/03/22 05:46:25;;;;;;;;;;;20.30;58.90;;;;;;5032983;28;19915;-76
2023/03/22 05:49:25;;;;;;;;;;;20.30;58.90;;;;;;4989314;28;19910;-77
2023/03/22 05:51:52;;;;;;;;;;;20.40;59.00;;;;;;4972745;28;19941;-77
2023/03/22 05:54:21;;;;;;;;;;;20.20;59.10;;;;;;4973259;28;19921;-77
2023/03/22 05:56:50;;;;;;;;;;;20.30;59.20;;;;;;4992458;28;19909;-76
2023/03/22 05:59:17;;;;;;;;;;;20.30;59.10;;;;;;4992474;28;19918;-76
2023/03/22 06:01:43;;;;;;;;;;;20.30;59.10;;;;;;4976149;28;19932;-76
2023/03/22 06:04:19;;;;;;;;;;;20.30;59.00;;;;;;4992485;28;19913;-76
2023/03/22 06:06:55;;;;;;;;;;;20.30;58.90;;;;;;4992245;28;20493;-76
2023/03/22 06:09:34;;;;;;;;;;;20.30;58.90;;;;;;4992324;28;19913;-77
2023/03/22 06:12:03;;;;;;;;;;;20.50;58.90;;;;;;4975706;28;20345;-77
2023/03/22 06:14:29;;;;;;;;;;;20.40;58.70;;;;;;4992484;28;19914;-77
2023/03/22 06:17:15;;;;;;;;;;;20.40;58.60;;;;;;4992210;28;19917;-76
2023/03/22 06:19:42;;;;;;;;;;;20.50;58.60;;;;;;4992202;28;19918;-76
2023/03/22 06:22:09;;;;;;;;;;;20.40;58.50;;;;;;4976058;28;20537;-76
2023/03/22 06:24:36;;;;;;;;;;;20.40;58.40;;;;;;4985882;28;20032;-77
2023/03/22 06:27:04;;;;;;;;;;;20.40;58.20;;;;;;4995044;28;19920;-76
2023/03/22 06:29:30;;;;;;;;;;;20.50;58.30;;;;;;4995313;28;19913;-76
2023/03/22 06:31:59;;;;;;;;;;;20.50;58.20;;;;;;4995010;28;19916;-76
2023/03/22 06:34:25;;;;;;;;;;;20.50;58.20;;;;;;5011634;28;20384;-77
2023/03/22 06:36:54;;;;;;;;;;;20.60;58.20;;;;;;4995104;28;19909;-76
2023/03/22 06:39:30;;;;;;;;;;;20.50;58.20;;;;;;4978820;28;20017;-77
2023/03/22 06:41:57;;;;;;;;;;;20.40;58.10;;;;;;5011519;28;19992;-77
2023/03/22 06:44:23;;;;;;;;;;;20.40;58.20;;;;;;5011189;28;19952;-76
2023/03/22 06:46:49;;;;;;;;;;;20.40;58.20;;;;;;4995110;28;20328;-76
2023/03/22 06:49:35;;;;;;;;;;;20.50;58.30;;;;;;4991473;28;20349;-77
2023/03/22 06:52:02;;;;;;;;;;;20.40;58.20;;;;;;4991773;28;20437;-76
2023/03/22 06:54:28;;;;;;;;;;;20.50;58.30;;;;;;4992059;28;19918;-76
2023/03/22 06:56:54;;;;;;;;;;;20.50;58.30;;;;;;4994728;28;19910;-76
2023/03/22 06:59:20;;;;;;;;;;;20.40;58.20;;;;;;4994619;28;20023;-76
2023/03/22 07:01:47;;;;;;;;;;;20.30;58.20;;;;;;4994802;28;20632;-76
2023/03/22 07:04:13;;;;;;;;;;;20.40;58.30;;;;;;5010824;28;19917;-76
2023/03/22 07:06:40;;;;;;;;;;;20.30;58.50;;;;;;4994586;28;19957;-76
2023/03/22 07:09:06;;;;;;;;;;;20.50;58.60;;;;;;4978105;28;20006;-77
2023/03/22 07:11:34;;;;;;;;;;;20.40;58.30;;;;;;5002429;28;20169;-76
2023/03/22 07:14:02;;;;;;;;;;;20.40;58.20;;;;;;5014105;28;19959;-76
2023/03/22 07:17:06;;;;;;;;;;;20.50;58.20;;;;;;4991051;28;19910;-76
2023/03/22 07:19:33;;;;;;;;;;;20.40;58.00;;;;;;4990735;28;19921;-76
2023/03/22 07:22:05;;;;;;;;;;;20.60;58.00;;;;;;4974781;28;20488;-76
2023/03/22 07:24:31;;;;;;;;;;;20.50;58.00;;;;;;4974735;28;19996;-76
2023/03/22 07:26:57;;;;;;;;;;;20.60;58.00;;;;;;4979067;28;19910;-76
2023/03/22 07:29:26;;;;;;;;;;;20.60;57.90;;;;;;4971374;28;19920;-76
2023/03/22 07:31:52;;;;;;;;;;;20.70;57.80;;;;;;4955098;28;20044;-76
2023/03/22 07:34:25;;;;;;;;;;;20.60;57.90;;;;;;4955158;28;19913;-76
2023/03/22 07:37:02;;;;;;;;;;;20.70;57.90;;;;;;4955273;28;19914;-76
2023/03/22 07:39:28;;;;;;;;;;;20.80;57.70;;;;;;4971210;28;19958;-76
2023/03/22 07:41:55;;;;;;;;;;;20.80;57.70;;;;;;4955238;28;19910;-77
2023/03/22 07:44:24;;;;;;;;;;;20.70;57.70;;;;;;4971199;28;20429;-76
2023/03/22 07:47:16;;;;;;;;;;;20.60;57.60;;;;;;4942280;28;19918;-76
2023/03/22 07:50:05;;;;;;;;;;;20.70;57.70;;;;;;4913624;29;19919;-76
2023/03/22 07:52:32;;;;;;;;;;;20.60;57.70;;;;;;4913730;29;20031;-77
2023/03/22 07:54:58;;;;;;;;;;;20.80;57.70;;;;;;4913536;29;20019;-76
2023/03/22 07:57:24;;;;;;;;;;;20.60;57.60;;;;;;4897743;29;20057;-77
2023/03/22 07:59:57;;;;;;;;;;;20.80;57.70;;;;;;4913426;29;19919;-77
2023/03/22 08:02:26;;;;;;;;;;;20.80;57.50;;;;;;4913584;29;19915;-76
2023/03/22 08:04:54;;;;;;;;;;;20.80;57.50;;;;;;4897803;29;20363;-76
2023/03/22 08:07:41;;;;;;;;;;;20.70;57.50;;;;;;4913377;29;19914;-76
2023/03/22 08:10:09;;;;;;;;;;;20.70;57.60;;;;;;4913194;29;20805;-77
2023/03/22 08:12:35;;;;;;;;;;;20.80;57.70;;;;;;4926611;29;20288;-77
2023/03/22 08:15:11;;;;;;;;;;;20.70;57.80;;;;;;4916555;29;19922;-77
2023/03/22 08:17:37;;;;;;;;;;;20.80;57.70;;;;;;4916111;29;19914;-77
2023/03/22 08:20:07;;;;;;;;;;;20.80;57.50;;;;;;4915818;29;20040;-77
2023/03/22 08:22:43;;;;;;;;;;;20.80;57.60;;;;;;4916406;29;19980;-76
2023/03/22 08:25:31;;;;;;;;;;;20.90;57.50;;;;;;4950989;29;19915;-76
2023/03/22 08:28:05;;;;;;;;;;;21.00;57.30;;;;;;5021371;28;20387;-76
2023/03/22 08:30:31;;;;;;;;;;;20.90;57.20;;;;;;5012596;28;19913;-77
2023/03/22 08:32:57;;;;;;;;;;;21.00;57.20;;;;;;5029316;28;20506;-77
2023/03/22 08:35:23;;;;;;;;;;;21.00;57.10;;;;;;5012722;28;19932;-76
2023/03/22 08:37:53;;;;;;;;;;;21.00;56.90;;;;;;5029103;28;19909;-76
2023/03/22 08:40:19;;;;;;;;;;;21.10;56.80;;;;;;5029101;28;19951;-76
2023/03/22 08:42:53;;;;;;;;;;;21.20;56.60;;;;;;5029129;28;20439;-77
2023/03/22 08:45:19;;;;;;;;;;;21.30;56.50;;;;;;4996119;28;20368;-77
2023/03/22 08:47:54;;;;;;;;;;;21.20;56.30;;;;;;5028966;28;19913;-77
2023/03/22 08:50:22;;;;;;;;;;;21.40;56.30;;;;;;5028877;28;19992;-77
2023/03/22 08:52:56;;;;;;;;;;;21.40;56.40;;;;;;5012631;28;19939;-76
2023/03/22 08:55:30;;;;;;;;;;;21.30;56.30;;;;;;5012391;28;19959;-76
2023/03/22 08:58:12;;;;;;;;;;;21.30;56.40;;;;;;5028647;28;19909;-77
2023/03/22 09:01:12;;;;;;;;;;;21.30;56.20;;;;;;5028790;28;19951;-77
2023/03/22 09:03:44;;;;;;;;;;;21.20;56.40;;;;;;5069629;28;19946;-77
2023/03/22 09:06:10;;;;;;;;;;;21.20;56.30;;;;;;5070023;28;19912;-76
2023/03/22 09:08:38;;;;;;;;;;;21.30;56.30;;;;;;5069852;28;19961;-76
2023/03/22 09:11:09;;;;;;;;;;;21.40;56.30;;;;;;5067807;28;19908;-77
2023/03/22 09:13:35;;;;;;;;;;;21.20;56.20;;;;;;5033299;28;19920;-76
2023/03/22 09:16:03;;;;;;;;;;;21.40;56.20;;;;;;5016749;28;20007;-77
2023/03/22 09:18:31;;;;;;;;;;;21.40;56.20;;;;;;5016795;28;19921;-76
2023/03/22 09:21:01;;;;;;;;;;;21.30;56.20;;;;;;5033752;28;19963;-76
2023/03/22 09:23:35;;;;;;;;;;;21.30;56.30;;;;;;5033316;28;20269;-77
2023/03/22 09:26:02;;;;;;;;;;;21.30;56.30;;;;;;5016777;28;19931;-76
2023/03/22 09:28:30;;;;;;;;;;;21.30;56.30;;;;;;5033064;28;19913;-76
2023/03/22 09:31:01;;;;;;;;;;;21.40;56.30;;;;;;5035908;28;19912;-76
2023/03/22 09:33:28;;;;;;;;;;;21.40;56.20;;;;;;5036929;28;19915;-77
2023/03/22 09:35:54;;;;;;;;;;;21.60;56.30;;;;;;5037053;28;19913;-76
2023/03/22 09:38:20;;;;;;;;;;;21.40;56.20;;;;;;5020272;28;20022;-76
2023/03/22 09:40:59;;;;;;;;;;;21.50;56.20;;;;;;5036794;28;20015;-76
2023/03/22 09:43:30;;;;;;;;;;;21.50;56.20;;;;;;5036723;28;19909;-76
2023/03/22 09:45:57;;;;;;;;;;;21.40;56.20;;;;;;5036775;28;20319;-76
2023/03/22 09:48:27;;;;;;;;;;;21.50;56.40;;;;;;5054473;28;20402;-76
2023/03/22 09:50:54;;;;;;;;;;;21.50;56.40;;;;;;5054422;28;19915;-76
2023/03/22 09:53:21;;;;;;;;;;;21.50;56.30;;;;;;5054555;28;19909;-77
2023/03/22 09:56:02;;;;;;;;;;;21.60;56.20;;;;;;5054450;28;19915;-77
2023/03/22 09:58:46;;;;;;;;;;;21.50;56.20;;;;;;5054167;28;19973;-76
2023/03/22 10:01:33;;;;;;;;;;;21.50;56.10;;;;;;5054379;28;19961;-76
2023/03/22 10:04:14;;;;;;;;;;;21.50;56.30;;;;;;5054273;28;19916;-76
2023/03/22 10:06:44;;;;;;;;;;;21.40;56.20;;;;;;5054545;28;19908;-76
2023/03/22 10:09:14;;;;;;;;;;;21.50;56.40;;;;;;5054070;28;19908;-76
2023/03/22 10:11:46;;;;;;;;;;;21.40;56.30;;;;;;5054133;28;20008;-77
2023/03/22 10:14:24;;;;;;;;;;;21.40;56.20;;;;;;5054178;28;19915;-77
2023/03/22 10:16:51;;;;;;;;;;;21.40;56.30;;;;;;5053985;28;19954;-77
2023/03/22 10:19:27;;;;;;;;;;;21.40;56.30;;;;;;5053793;28;19921;-76
2023/03/22 10:21:54;;;;;;;;;;;21.40;56.20;;;;;;5036182;28;20650;-77
2023/03/22 10:24:26;;;;;;;;;;;21.40;56.30;;;;;;5053723;28;19920;-76
2023/03/22 10:26:52;;;;;;;;;;;21.40;56.40;;;;;;5053949;28;19913;-77
2023/03/22 10:29:37;;;;;;;;;;;21.30;56.50;;;;;;5053791;28;20384;-77
2023/03/22 10:32:29;;;;;;;;;;;21.40;56.50;;;;;;5053814;28;19913;-76
2023/03/22 10:34:55;;;;;;;;;;;21.30;56.60;;;;;;4936950;29;19930;-76
2023/03/22 10:37:24;;;;;;;;;;;21.40;56.70;;;;;;4953036;29;19914;-76
2023/03/22 10:39:52;;;;;;;;;;;21.60;56.70;;;;;;4952771;29;19922;-76
2023/03/22 10:42:20;;;;;;;;;;;21.40;54.70;;;;;;4952459;28;19920;-76
2023/03/22 10:44:52;;;;;;;;;;;21.40;56.00;;;;;;4952885;29;19910;-76
2023/03/22 10:47:23;;;;;;;;;;;21.40;56.40;;;;;;4953277;29;19915;-76
2023/03/22 10:49:53;;;;;;;;;;;21.50;56.40;;;;;;4952749;29;19956;-77
2023/03/22 10:52:22;;;;;;;;;;;21.50;56.30;;;;;;4953171;29;20426;-77
2023/03/22 10:54:48;;;;;;;;;;;21.60;56.30;;;;;;4952809;28;19910;-76
2023/03/22 10:57:14;;;;;;;;;;;21.60;56.40;;;;;;4953071;29;19922;-76
2023/03/22 10:59:44;;;;;;;;;;;21.50;56.30;;;;;;4952574;29;19918;-77
2023/03/22 11:02:22;;;;;;;;;;;21.60;56.20;;;;;;4952888;29;19910;-77
2023/03/22 11:04:52;;;;;;;;;;;21.60;56.20;;;;;;4952633;29;19914;-76
2023/03/22 11:07:37;;;;;;;;;;;21.60;56.20;;;;;;4952718;29;19925;-77
2023/03/22 11:10:09;;;;;;;;;;;21.60;56.20;;;;;;4952377;29;19916;-76
2023/03/22 11:12:36;;;;;;;;;;;21.60;56.30;;;;;;5038191;28;19920;-76
2023/03/22 11:15:03;;;;;;;;;;;21.60;56.40;;;;;;5052783;28;20438;-76
2023/03/22 11:17:29;;;;;;;;;;;21.30;56.30;;;;;;5052866;28;19917;-76
2023/03/22 11:20:00;;;;;;;;;;;21.50;56.40;;;;;;5052617;28;19923;-76
2023/03/22 11:22:32;;;;;;;;;;;21.50;56.40;;;;;;5052816;28;20010;-76
2023/03/22 11:24:58;;;;;;;;;;;21.50;56.50;;;;;;5052804;28;19978;-76
2023/03/22 11:27:24;;;;;;;;;;;21.60;56.50;;;;;;5052710;28;19909;-76
2023/03/22 11:29:56;;;;;;;;;;;21.60;56.40;;;;;;5034944;28;19916;-76
2023/03/22 11:32:29;;;;;;;;;;;21.50;56.50;;;;;;5052414;28;20393;-76
2023/03/22 11:35:15;;;;;;;;;;;21.50;56.70;;;;;;5052645;28;19923;-76
2023/03/22 11:37:42;;;;;;;;;;;21.30;56.50;;;;;;5052629;28;19919;-76
2023/03/22 11:40:16;;;;;;;;;;;21.40;56.60;;;;;;5052155;28;19924;-76
2023/03/22 11:42:42;;;;;;;;;;;21.50;56.70;;;;;;5052348;28;19908;-76
2023/03/22 11:45:20;;;;;;;;;;;21.50;56.60;;;;;;5052262;28;20275;-77
2023/03/22 11:47:46;;;;;;;;;;;21.40;56.50;;;;;;5052101;28;20345;-76
2023/03/22 11:50:32;;;;;;;;;;;21.50;56.60;;;;;;5051962;28;20012;-76
2023/03/22 11:53:00;;;;;;;;;;;21.40;56.60;;;;;;5051559;28;19913;-76
2023/03/22 11:55:28;;;;;;;;;;;21.50;56.70;;;;;;5034006;28;20383;-76
2023/03/22 11:57:54;;;;;;;;;;;21.50;56.70;;;;;;5052112;28;19915;-76
2023/03/22 12:00:22;;;;;;;;;;;21.60;56.70;;;;;;5034137;28;19917;-76
2023/03/22 12:02:51;;;;;;;;;;;21.50;56.60;;;;;;5052022;28;19912;-76
2023/03/22 12:05:17;;;;;;;;;;;21.60;56.50;;;;;;5052051;28;19948;-76
2023/03/22 12:07:44;;;;;;;;;;;21.50;56.60;;;;;;5034125;28;19916;-76
2023/03/22 12:10:23;;;;;;;;;;;21.60;56.50;;;;;;5051845;28;19908;-76
2023/03/22 12:12:54;;;;;;;;;;;21.60;56.40;;;;;;5051619;28;19925;-77
2023/03/22 12:15:22;;;;;;;;;;;21.80;56.50;;;;;;5033775;28;19951;-76
2023/03/22 12:17:52;;;;;;;;;;;21.80;56.40;;;;;;5051845;28;19908;-77
2023/03/22 12:20:28;;;;;;;;;;;21.70;56.30;;;;;;5051700;28;19969;-76
2023/03/22 12:22:54;;;;;;;;;;;21.80;56.40;;;;;;5051783;28;19947;-77
2023/03/22 12:25:29;;;;;;;;;;;21.80;56.20;;;;;;5017866;28;19974;-76
2023/03/22 12:27:57;;;;;;;;;;;21.80;56.30;;;;;;5051485;28;19974;-77
2023/03/22 12:30:24;;;;;;;;;;;21.90;56.30;;;;;;5051532;28;19919;-76
2023/03/22 12:32:55;;;;;;;;;;;21.90;56.20;;;;;;5051441;28;20467;-76
2023/03/22 12:35:24;;;;;;;;;;;21.90;56.10;;;;;;5051509;28;20019;-77
2023/03/22 12:37:54;;;;;;;;;;;21.90;56.10;;;;;;5051403;28;19909;-77
2023/03/22 12:40:23;;;;;;;;;;;21.90;56.00;;;;;;5051355;28;19924;-77
2023/03/22 12:42:48;;;;;;;;;;;22.00;56.10;;;;;;5051348;28;19955;-77
2023/03/22 12:45:17;;;;;;;;;;;22.00;56.00;;;;;;5051597;28;19978;-77
2023/03/22 12:47:46;;;;;;;;;;;22.00;55.90;;;;;;5051572;28;19909;-76
2023/03/22 12:50:30;;;;;;;;;;;22.00;55.90;;;;;;5051462;28;19913;-76
2023/03/22 12:52:57;;;;;;;;;;;22.10;56.00;;;;;;5051322;28;19912;-77
2023/03/22 12:55:31;;;;;;;;;;;22.00;55.80;;;;;;5051339;28;20387;-76
2023/03/22 12:57:57;;;;;;;;;;;22.20;55.90;;;;;;5051262;28;19909;-77
2023/03/22 13:00:29;;;;;;;;;;;22.10;55.90;;;;;;5051069;28;19921;-77
2023/03/22 13:03:00;;;;;;;;;;;22.10;55.80;;;;;;5051203;28;19908;-76
2023/03/22 13:05:28;;;;;;;;;;;22.10;55.80;;;;;;5053392;28;19944;-77
2023/03/22 13:07:57;;;;;;;;;;;22.10;55.80;;;;;;5037403;28;20221;-77
2023/03/22 13:10:30;;;;;;;;;;;22.10;55.70;;;;;;5055156;28;19909;-76
2023/03/22 13:13:16;;;;;;;;;;;22.20;55.80;;;;;;5067397;28;19927;-76
2023/03/22 13:16:00;;;;;;;;;;;22.10;55.80;;;;;;5074938;28;19931;-76
2023/03/22 13:18:31;;;;;;;;;;;22.10;55.30;;;;;;5074930;28;19920;-76
2023/03/22 13:21:15;;;;;;;;;;;22.10;55.60;;;;;;5075089;28;19908;-76
2023/03/22 13:24:00;;;;;;;;;;;22.20;55.70;;;;;;5075109;28;19912;-77
2023/03/22 13:26:46;;;;;;;;;;;22.10;55.60;;;;;;5073510;28;19943;-76
2023/03/22 13:29:17;;;;;;;;;;;22.10;55.60;;;;;;5074072;28;19909;-76
2023/03/22 13:31:49;;;;;;;;;;;22.10;55.50;;;;;;5074835;28;19957;-76
2023/03/22 13:34:19;;;;;;;;;;;22.10;55.60;;;;;;5074886;28;19916;-76
2023/03/22 13:36:53;;;;;;;;;;;22.20;55.70;;;;;;5074674;28;20328;-76
2023/03/22 13:39:22;;;;;;;;;;;22.00;55.60;;;;;;5073462;28;19961;-76
2023/03/22 13:41:48;;;;;;;;;;;22.10;55.60;;;;;;5074467;28;19935;-76
2023/03/22 13:44:19;;;;;;;;;;;22.00;55.60;;;;;;5039243;28;19908;-76
2023/03/22 13:46:48;;;;;;;;;;;22.00;55.60;;;;;;5074590;28;20303;-76
2023/03/22 13:49:33;;;;;;;;;;;22.10;55.70;;;;;;5073292;28;19920;-76
2023/03/22 13:52:00;;;;;;;;;;;22.10;55.70;;;;;;5074457;28;19912;-76
2023/03/22 13:54:31;;;;;;;;;;;22.10;55.70;;;;;;5073311;28;19913;-77
2023/03/22 13:56:59;;;;;;;;;;;22.10;55.60;;;;;;5074477;28;19919;-77
2023/03/22 13:59:28;;;;;;;;;;;22.20;55.60;;;;;;5074316;28;19923;-76
2023/03/22 14:02:17;;;;;;;;;;;22.20;55.50;;;;;;5073986;28;20006;-76
2023/03/22 14:04:46;;;;;;;;;;;22.20;55.40;;;;;;5074289;28;19913;-76
2023/03/22 14:07:34;;;;;;;;;;;22.10;55.50;;;;;;5073969;28;19915;-76
2023/03/22 14:10:18;;;;;;;;;;;22.10;55.50;;;;;;5074199;28;19909;-76
2023/03/22 14:12:47;;;;;;;;;;;22.20;55.50;;;;;;5058884;28;19950;-76
2023/03/22 14:15:14;;;;;;;;;;;22.20;55.40;;;;;;5053981;28;19913;-76
2023/03/22 14:17:49;;;;;;;;;;;22.20;55.50;;;;;;5054173;28;19909;-76
2023/03/22 14:20:20;;;;;;;;;;;22.20;55.40;;;;;;5053734;28;19963;-76
2023/03/22 14:22:52;;;;;;;;;;;22.20;55.30;;;;;;5053905;28;20265;-76
2023/03/22 14:25:20;;;;;;;;;;;22.20;55.50;;;;;;5053724;28;19919;-76
2023/03/22 14:27:46;;;;;;;;;;;22.10;55.50;;;;;;5053852;28;19909;-76